Time;durP1;ratioP1;P1;durP2;ratioP2;P2;SDS_P1;SDS_P2;PMS_P1;PMS_P2;Temp;Humidity;BMP_temperature;BMP_pressure;BME280_temperature;BME280_humidity;BME280_pressure;Samples;Min_cycle;Max_cycle;Signal;HPM_P1;HPM_P2
2022/06/20 00:00:24;;;;;;;8.60;3.50;;;;;;;;;;5073906;28;20426;-74
2022/06/20 00:02:51;;;;;;;8.27;3.03;;;;;;;;;;5072089;28;20422;-74
2022/06/20 00:05:19;;;;;;;12.02;3.40;;;;;;;;;;5074518;28;20435;-74
2022/06/20 00:07:47;;;;;;;6.00;3.05;;;;;;;;;;5079436;28;20427;-74
2022/06/20 00:10:15;;;;;;;6.60;2.90;;;;;;;;;;5078271;28;20435;-74
2022/06/20 00:12:42;;;;;;;7.60;3.67;;;;;;;;;;5077294;28;20433;-74
2022/06/20 00:15:12;;;;;;;9.63;3.28;;;;;;;;;;5078479;28;20424;-74
2022/06/20 00:17:38;;;;;;;8.15;3.30;;;;;;;;;;5078460;28;20434;-74
2022/06/20 00:20:05;;;;;;;7.60;3.60;;;;;;;;;;5077337;28;20421;-74
2022/06/20 00:22:31;;;;;;;7.55;3.00;;;;;;;;;;5078850;28;20434;-74
2022/06/20 00:24:59;;;;;;;9.48;3.67;;;;;;;;;;5076186;28;20777;-75
2022/06/20 00:27:25;;;;;;;7.38;3.38;;;;;;;;;;5077070;28;20428;-74
2022/06/20 00:29:51;;;;;;;12.47;3.63;;;;;;;;;;5077476;28;20421;-74
2022/06/20 00:32:18;;;;;;;9.38;3.70;;;;;;;;;;5077461;28;20433;-74
2022/06/20 00:34:44;;;;;;;10.63;4.10;;;;;;;;;;5078200;28;20428;-74
2022/06/20 00:37:16;;;;;;;7.47;3.17;;;;;;;;;;5078335;28;20422;-74
2022/06/20 00:39:43;;;;;;;9.75;3.50;;;;;;;;;;5080496;28;20420;-74
2022/06/20 00:42:11;;;;;;;5.85;2.90;;;;;;;;;;5079805;28;20434;-74
2022/06/20 00:44:39;;;;;;;7.45;3.58;;;;;;;;;;5076901;28;20777;-74
2022/06/20 00:47:07;;;;;;;8.43;3.60;;;;;;;;;;5075938;28;20443;-74
2022/06/20 00:49:35;;;;;;;7.78;3.50;;;;;;;;;;5076937;28;20442;-74
2022/06/20 00:52:04;;;;;;;12.02;3.95;;;;;;;;;;5077300;28;20793;-74
2022/06/20 00:54:33;;;;;;;7.38;3.95;;;;;;;;;;5077682;28;20418;-74
2022/06/20 00:57:04;;;;;;;7.20;4.03;;;;;;;;;;5077306;28;20437;-75
2022/06/20 00:59:33;;;;;;;11.80;4.10;;;;;;;;;;5077057;28;20420;-74
2022/06/20 01:02:00;;;;;;;9.03;3.43;;;;;;;;;;5079200;28;20508;-74
2022/06/20 01:04:30;;;;;;;11.80;3.67;;;;;;;;;;5079597;28;20492;-74
2022/06/20 01:06:57;;;;;;;9.52;3.70;;;;;;;;;;5076305;28;20435;-74
2022/06/20 01:09:27;;;;;;;9.55;4.10;;;;;;;;;;5077103;28;20496;-74
2022/06/20 01:11:54;;;;;;;8.48;4.35;;;;;;;;;;5077245;28;21060;-74
2022/06/20 01:14:22;;;;;;;9.80;4.23;;;;;;;;;;5078567;28;20494;-75
2022/06/20 01:16:52;;;;;;;9.47;4.47;;;;;;;;;;5074503;28;20835;-74
2022/06/20 01:19:25;;;;;;;10.38;4.70;;;;;;;;;;5075360;28;20435;-74
2022/06/20 01:21:51;;;;;;;8.05;4.82;;;;;;;;;;5074433;28;20435;-74
2022/06/20 01:24:23;;;;;;;8.32;3.72;;;;;;;;;;5077997;28;20401;-74
2022/06/20 01:26:53;;;;;;;7.25;3.50;;;;;;;;;;5077874;28;20545;-74
2022/06/20 01:29:21;;;;;;;7.40;3.90;;;;;;;;;;5078083;28;20406;-74
2022/06/20 01:31:49;;;;;;;9.43;4.13;;;;;;;;;;5075475;28;20435;-74
2022/06/20 01:34:17;;;;;;;10.35;4.28;;;;;;;;;;5075965;28;20423;-74
2022/06/20 01:39:29;;;;;;;9.80;4.20;;;;;;;;;;5076213;28;20418;-75
2022/06/20 01:44:42;;;;;;;16.10;5.60;;;;;;;;;;5075679;28;20413;-74
2022/06/20 01:47:09;;;;;;;11.50;5.40;;;;;;;;;;5074929;28;20439;-74
2022/06/20 01:49:36;;;;;;;8.73;4.23;;;;;;;;;;5076643;28;20420;-74
2022/06/20 01:52:06;;;;;;;9.02;4.50;;;;;;;;;;5074925;28;20941;-74
2022/06/20 01:54:34;;;;;;;10.73;4.90;;;;;;;;;;5076781;28;21374;-74
2022/06/20 01:57:02;;;;;;;6.20;4.25;;;;;;;;;;5076368;28;20429;-74
2022/06/20 01:59:32;;;;;;;8.20;4.40;;;;;;;;;;5075572;28;20425;-74
2022/06/20 02:02:00;;;;;;;8.05;3.67;;;;;;;;;;5077315;28;20793;-74
2022/06/20 02:04:28;;;;;;;14.00;4.60;;;;;;;;;;5075922;28;20442;-74
2022/06/20 02:06:55;;;;;;;6.47;3.90;;;;;;;;;;5075356;28;20432;-74
2022/06/20 02:09:22;;;;;;;11.00;4.33;;;;;;;;;;5076764;28;20402;-74
2022/06/20 02:11:48;;;;;;;9.10;3.95;;;;;;;;;;5075258;28;20427;-74
2022/06/20 02:14:16;;;;;;;7.00;3.85;;;;;;;;;;5074682;28;20443;-74
2022/06/20 02:16:46;;;;;;;6.63;3.90;;;;;;;;;;5074020;28;20426;-74
2022/06/20 02:19:17;;;;;;;12.80;4.07;;;;;;;;;;5074765;28;20421;-74
2022/06/20 02:21:45;;;;;;;7.70;4.35;;;;;;;;;;5078527;28;20489;-74
2022/06/20 02:24:12;;;;;;;7.63;3.80;;;;;;;;;;5076664;28;20434;-74
2022/06/20 02:26:40;;;;;;;9.27;4.65;;;;;;;;;;5076372;28;20432;-74
2022/06/20 02:29:08;;;;;;;6.85;4.30;;;;;;;;;;5074171;28;20418;-74
2022/06/20 02:31:35;;;;;;;5.97;3.80;;;;;;;;;;5076697;28;20430;-75
2022/06/20 02:34:01;;;;;;;10.97;4.30;;;;;;;;;;5075577;28;20431;-74
2022/06/20 02:36:29;;;;;;;7.35;4.20;;;;;;;;;;5076742;28;20506;-74
2022/06/20 02:38:55;;;;;;;9.70;4.30;;;;;;;;;;5075577;28;20797;-74
2022/06/20 02:41:24;;;;;;;11.90;5.38;;;;;;;;;;5073292;28;20424;-74
2022/06/20 02:43:54;;;;;;;11.57;5.00;;;;;;;;;;5073729;28;20433;-74
2022/06/20 02:46:23;;;;;;;7.30;4.20;;;;;;;;;;5075678;28;20890;-74
2022/06/20 02:48:51;;;;;;;7.53;4.07;;;;;;;;;;5075619;28;20438;-74
2022/06/20 02:51:20;;;;;;;7.95;4.40;;;;;;;;;;5075321;28;20431;-74
2022/06/20 02:53:49;;;;;;;14.27;5.05;;;;;;;;;;5077435;28;20425;-74
2022/06/20 02:56:16;;;;;;;6.80;4.03;;;;;;;;;;5072629;28;20431;-74
2022/06/20 02:58:45;;;;;;;12.13;4.35;;;;;;;;;;5074897;28;20427;-74
2022/06/20 03:01:14;;;;;;;11.80;4.83;;;;;;;;;;5075459;28;20413;-75
2022/06/20 03:03:42;;;;;;;9.57;5.28;;;;;;;;;;5076681;28;20481;-74
2022/06/20 03:06:11;;;;;;;8.57;4.93;;;;;;;;;;5075461;28;20421;-74
2022/06/20 03:08:38;;;;;;;12.95;5.78;;;;;;;;;;5073091;28;20434;-74
2022/06/20 03:11:05;;;;;;;10.05;4.85;;;;;;;;;;5074099;28;21083;-74
2022/06/20 03:13:33;;;;;;;12.27;5.35;;;;;;;;;;5077828;28;21204;-74
2022/06/20 03:15:59;;;;;;;10.77;5.13;;;;;;;;;;5074234;28;20413;-74
2022/06/20 03:18:26;;;;;;;15.00;5.93;;;;;;;;;;5074428;28;20422;-74
2022/06/20 03:20:52;;;;;;;10.90;5.00;;;;;;;;;;5076745;28;20428;-74
2022/06/20 03:23:22;;;;;;;13.33;5.57;;;;;;;;;;5073574;28;20434;-74
2022/06/20 03:25:49;;;;;;;12.32;5.50;;;;;;;;;;5073762;28;20420;-74
2022/06/20 03:28:19;;;;;;;15.18;6.68;;;;;;;;;;5073156;28;20434;-75
2022/06/20 03:30:46;;;;;;;11.90;5.43;;;;;;;;;;5073598;28;20427;-74
2022/06/20 03:33:14;;;;;;;12.02;6.30;;;;;;;;;;5074841;28;20803;-74
2022/06/20 03:35:42;;;;;;;10.98;6.45;;;;;;;;;;5073271;28;20882;-74
2022/06/20 03:38:08;;;;;;;14.65;6.82;;;;;;;;;;5073950;28;20442;-74
2022/06/20 03:40:38;;;;;;;10.90;6.82;;;;;;;;;;5072839;28;20434;-74
2022/06/20 03:43:06;;;;;;;12.63;7.30;;;;;;;;;;5075451;28;21088;-74
2022/06/20 03:45:35;;;;;;;16.27;7.20;;;;;;;;;;5072466;28;20445;-75
2022/06/20 03:48:03;;;;;;;19.65;8.30;;;;;;;;;;5074334;28;20450;-74
2022/06/20 03:50:33;;;;;;;13.75;7.03;;;;;;;;;;5075695;28;20432;-74
2022/06/20 03:53:03;;;;;;;18.05;7.05;;;;;;;;;;5072055;28;21049;-74
2022/06/20 03:55:31;;;;;;;13.40;6.60;;;;;;;;;;5075196;28;20422;-74
2022/06/20 03:58:00;;;;;;;16.20;7.00;;;;;;;;;;5075656;28;20524;-75
2022/06/20 04:00:29;;;;;;;14.82;7.20;;;;;;;;;;5074146;28;20790;-74
2022/06/20 04:02:59;;;;;;;20.95;7.07;;;;;;;;;;5072248;28;20430;-74
2022/06/20 04:05:27;;;;;;;17.57;6.73;;;;;;;;;;5075245;28;20422;-74
2022/06/20 04:07:57;;;;;;;15.30;6.90;;;;;;;;;;5072671;28;20788;-74
2022/06/20 04:13:11;;;;;;;11.10;7.00;;;;;;;;;;5070842;28;20506;-75
2022/06/20 04:15:40;;;;;;;13.80;6.60;;;;;;;;;;5073028;28;20437;-74
2022/06/20 04:18:29;;;;;;;13.50;5.93;;;;;;;;;;5076419;28;20427;-74
2022/06/20 04:21:11;;;;;;;9.52;5.65;;;;;;;;;;5071498;28;20422;-74
2022/06/20 04:23:41;;;;;;;13.55;6.18;;;;;;;;;;5073469;28;20437;-75
2022/06/20 04:26:10;;;;;;;12.30;5.60;;;;;;;;;;5073267;28;20894;-74
2022/06/20 04:28:39;;;;;;;11.70;6.35;;;;;;;;;;5070407;28;20426;-74
2022/06/20 04:31:10;;;;;;;14.23;6.65;;;;;;;;;;5070285;28;21107;-75
2022/06/20 04:33:40;;;;;;;12.73;5.95;;;;;;;;;;5073380;28;20924;-75
2022/06/20 04:36:14;;;;;;;13.70;6.30;;;;;;;;;;5074857;28;20429;-75
2022/06/20 04:38:44;;;;;;;12.77;6.15;;;;;;;;;;5075218;28;20422;-74
2022/06/20 04:41:12;;;;;;;12.23;6.43;;;;;;;;;;5075928;28;20410;-74
2022/06/20 04:43:43;;;;;;;13.43;6.60;;;;;;;;;;5077373;28;20895;-74
2022/06/20 04:46:14;;;;;;;12.30;6.60;;;;;;;;;;5072839;28;20429;-74
2022/06/20 04:48:41;;;;;;;12.55;5.60;;;;;;;;;;5073254;28;21365;-74
2022/06/20 04:51:10;;;;;;;12.27;6.97;;;;;;;;;;5073479;28;20435;-74
2022/06/20 04:53:38;;;;;;;14.25;6.70;;;;;;;;;;5079706;28;20435;-74
2022/06/20 04:56:07;;;;;;;14.98;6.63;;;;;;;;;;5075421;28;20797;-74
2022/06/20 04:58:34;;;;;;;11.30;6.32;;;;;;;;;;5073966;28;20440;-74
2022/06/20 05:01:01;;;;;;;10.75;6.20;;;;;;;;;;5074981;28;20544;-74
2022/06/20 05:03:30;;;;;;;9.05;6.03;;;;;;;;;;5076842;28;20434;-74
2022/06/20 05:05:59;;;;;;;13.10;6.63;;;;;;;;;;5076798;28;20432;-75
2022/06/20 05:08:26;;;;;;;10.48;6.65;;;;;;;;;;5078074;28;20436;-75
2022/06/20 05:10:55;;;;;;;10.18;6.47;;;;;;;;;;5077566;28;20434;-75
2022/06/20 05:13:23;;;;;;;14.13;7.20;;;;;;;;;;5077712;28;20433;-75
2022/06/20 05:15:50;;;;;;;9.87;6.83;;;;;;;;;;5077085;28;20421;-75
2022/06/20 05:18:23;;;;;;;14.02;8.13;;;;;;;;;;5080190;28;20410;-75
2022/06/20 05:20:50;;;;;;;10.52;7.63;;;;;;;;;;5078497;28;20427;-75
2022/06/20 05:23:21;;;;;;;15.10;7.68;;;;;;;;;;5078676;28;20514;-75
2022/06/20 05:25:49;;;;;;;11.65;7.35;;;;;;;;;;5079860;28;21293;-75
2022/06/20 05:28:17;;;;;;;12.15;7.45;;;;;;;;;;5075974;28;21022;-75
2022/06/20 05:30:44;;;;;;;12.70;7.65;;;;;;;;;;5076960;28;20427;-75
2022/06/20 05:33:15;;;;;;;12.77;7.03;;;;;;;;;;5076637;28;20428;-75
2022/06/20 05:35:44;;;;;;;15.27;7.93;;;;;;;;;;5078366;28;20426;-75
2022/06/20 05:38:15;;;;;;;10.65;7.78;;;;;;;;;;5055938;22;20451;-75
2022/06/20 05:40:47;;;;;;;13.88;7.50;;;;;;;;;;5018196;28;20430;-75
2022/06/20 05:43:17;;;;;;;12.70;8.60;;;;;;;;;;5020025;28;20946;-75
2022/06/20 05:45:44;;;;;;;12.60;7.75;;;;;;;;;;5016712;28;20452;-76
2022/06/20 05:48:12;;;;;;;14.98;8.60;;;;;;;;;;5018246;28;20434;-75
2022/06/20 05:50:41;;;;;;;15.85;7.95;;;;;;;;;;5017183;28;20435;-75
2022/06/20 05:53:12;;;;;;;12.40;7.63;;;;;;;;;;5020352;28;20439;-75
2022/06/20 05:55:41;;;;;;;15.27;7.90;;;;;;;;;;5019670;28;20433;-75
2022/06/20 05:58:11;;;;;;;12.35;7.38;;;;;;;;;;5018980;28;20412;-75
2022/06/20 06:00:38;;;;;;;12.50;6.80;;;;;;;;;;5020186;28;20415;-75
2022/06/20 06:03:05;;;;;;;12.90;6.50;;;;;;;;;;5019182;28;20434;-75
2022/06/20 06:05:34;;;;;;;9.90;6.20;;;;;;;;;;5018783;28;20427;-75
2022/06/20 06:08:02;;;;;;;9.85;6.53;;;;;;;;;;5019044;28;20446;-75
2022/06/20 06:10:34;;;;;;;12.30;6.53;;;;;;;;;;5019710;28;20431;-75
2022/06/20 06:13:06;;;;;;;12.63;6.18;;;;;;;;;;5019286;28;20428;-75
2022/06/20 06:15:36;;;;;;;11.38;5.53;;;;;;;;;;5018379;28;20427;-75
2022/06/20 06:18:04;;;;;;;10.55;5.35;;;;;;;;;;5019571;28;20435;-75
2022/06/20 06:20:32;;;;;;;9.27;4.90;;;;;;;;;;5018928;28;20427;-75
2022/06/20 06:22:59;;;;;;;9.20;5.00;;;;;;;;;;5018515;28;20438;-75
2022/06/20 06:25:27;;;;;;;7.68;4.80;;;;;;;;;;5016794;28;20486;-76
2022/06/20 06:27:55;;;;;;;9.57;4.00;;;;;;;;;;5017548;28;20450;-75
2022/06/20 06:30:23;;;;;;;6.70;2.90;;;;;;;;;;5019143;28;20768;-76
2022/06/20 06:32:53;;;;;;;6.97;3.35;;;;;;;;;;5018816;28;20428;-75
2022/06/20 06:35:23;;;;;;;7.63;3.30;;;;;;;;;;5017991;28;20425;-75
2022/06/20 06:37:54;;;;;;;10.90;3.15;;;;;;;;;;5018699;28;21545;-75
2022/06/20 06:40:23;;;;;;;4.83;2.40;;;;;;;;;;5019553;28;20417;-75
2022/06/20 06:42:51;;;;;;;6.20;2.45;;;;;;;;;;5019573;28;20509;-75
2022/06/20 06:45:21;;;;;;;6.30;2.20;;;;;;;;;;5017692;28;20442;-75
2022/06/20 06:47:50;;;;;;;6.57;2.50;;;;;;;;;;5018678;28;20441;-76
2022/06/20 06:50:22;;;;;;;5.97;2.80;;;;;;;;;;5017228;28;20447;-75
2022/06/20 06:52:51;;;;;;;9.38;3.30;;;;;;;;;;5019904;28;20435;-75
2022/06/20 06:55:21;;;;;;;6.32;3.40;;;;;;;;;;5017661;28;20754;-75
2022/06/20 06:57:49;;;;;;;7.57;2.42;;;;;;;;;;5016990;28;20446;-75
2022/06/20 07:00:24;;;;;;;6.72;2.88;;;;;;;;;;5018914;28;20918;-75
2022/06/20 07:02:52;;;;;;;6.53;2.60;;;;;;;;;;5018832;28;20466;-75
2022/06/20 07:05:23;;;;;;;6.03;2.50;;;;;;;;;;5016860;28;20438;-75
2022/06/20 07:07:51;;;;;;;6.10;2.70;;;;;;;;;;5018257;28;20863;-75
2022/06/20 07:10:19;;;;;;;8.02;2.58;;;;;;;;;;5017114;28;20413;-75
2022/06/20 07:12:48;;;;;;;6.38;2.70;;;;;;;;;;5017224;28;20427;-75
2022/06/20 07:15:16;;;;;;;6.32;3.00;;;;;;;;;;5016564;28;20452;-74
2022/06/20 07:17:45;;;;;;;7.20;2.70;;;;;;;;;;5017552;28;20436;-75
2022/06/20 07:20:12;;;;;;;5.35;2.60;;;;;;;;;;5016755;28;21012;-75
2022/06/20 07:22:41;;;;;;;7.32;2.70;;;;;;;;;;5018082;28;20508;-75
2022/06/20 07:25:08;;;;;;;5.77;2.67;;;;;;;;;;5016061;28;20434;-75
2022/06/20 07:27:37;;;;;;;6.53;2.53;;;;;;;;;;5015399;28;20438;-75
2022/06/20 07:30:05;;;;;;;6.75;2.80;;;;;;;;;;5017354;28;20433;-75
2022/06/20 07:32:34;;;;;;;6.13;2.70;;;;;;;;;;5017217;28;20952;-75
2022/06/20 07:35:03;;;;;;;6.60;2.70;;;;;;;;;;5015848;28;20431;-75
2022/06/20 07:37:32;;;;;;;6.07;2.92;;;;;;;;;;5017167;28;20459;-75
2022/06/20 07:40:01;;;;;;;7.65;3.00;;;;;;;;;;5016380;28;20415;-75
2022/06/20 07:42:30;;;;;;;5.85;3.00;;;;;;;;;;5017453;28;20787;-75
2022/06/20 07:44:59;;;;;;;6.68;3.47;;;;;;;;;;5015543;28;20435;-75
2022/06/20 07:47:29;;;;;;;6.50;3.00;;;;;;;;;;5017764;28;20426;-75
2022/06/20 07:49:56;;;;;;;5.07;2.97;;;;;;;;;;5017288;28;20495;-75
2022/06/20 07:52:25;;;;;;;6.28;2.97;;;;;;;;;;5019175;28;20466;-75
2022/06/20 07:54:53;;;;;;;5.25;3.13;;;;;;;;;;5017662;28;20418;-75
2022/06/20 07:57:22;;;;;;;6.88;3.40;;;;;;;;;;5018750;28;20914;-75
2022/06/20 07:59:52;;;;;;;4.38;2.95;;;;;;;;;;5017821;28;20421;-75
2022/06/20 08:02:20;;;;;;;4.93;2.90;;;;;;;;;;5017652;28;20427;-75
2022/06/20 08:04:47;;;;;;;4.10;2.80;;;;;;;;;;5017752;28;20419;-75
2022/06/20 08:07:16;;;;;;;7.18;2.90;;;;;;;;;;5017994;28;20442;-74
2022/06/20 08:09:46;;;;;;;4.80;2.80;;;;;;;;;;5017311;28;20479;-75
2022/06/20 08:12:16;;;;;;;5.45;3.08;;;;;;;;;;5018697;28;20427;-75
2022/06/20 08:14:46;;;;;;;7.25;3.90;;;;;;;;;;5016281;28;20429;-75
2022/06/20 08:17:13;;;;;;;8.02;3.72;;;;;;;;;;5015725;28;20421;-75
2022/06/20 08:19:40;;;;;;;6.50;3.47;;;;;;;;;;5017686;28;20526;-75
2022/06/20 08:22:09;;;;;;;8.40;3.03;;;;;;;;;;5016716;28;20494;-75
2022/06/20 08:24:38;;;;;;;7.63;3.35;;;;;;;;;;5016644;28;20424;-75
2022/06/20 08:27:07;;;;;;;5.97;3.50;;;;;;;;;;5018361;28;20432;-75
2022/06/20 08:29:36;;;;;;;6.93;3.70;;;;;;;;;;5019905;28;20427;-75
2022/06/20 08:32:08;;;;;;;8.27;4.05;;;;;;;;;;5022266;28;20429;-75
2022/06/20 08:34:37;;;;;;;6.70;3.63;;;;;;;;;;5019637;28;20434;-75
2022/06/20 08:37:07;;;;;;;8.30;3.85;;;;;;;;;;5019256;28;20916;-75
2022/06/20 08:39:35;;;;;;;5.35;3.40;;;;;;;;;;5022079;28;20504;-75
2022/06/20 08:42:17;;;;;;;7.63;4.10;;;;;;;;;;5021436;28;20468;-75
2022/06/20 08:45:03;;;;;;;7.03;4.00;;;;;;;;;;5021698;28;20919;-75
2022/06/20 08:47:54;;;;;;;9.60;4.10;;;;;;;;;;5020512;28;20440;-75
2022/06/20 08:50:39;;;;;;;9.40;4.00;;;;;;;;;;5008467;28;20433;-75
2022/06/20 08:53:25;;;;;;;7.25;3.70;;;;;;;;;;5020605;28;20436;-75
2022/06/20 08:56:16;;;;;;;7.55;3.65;;;;;;;;;;5020620;28;20505;-75
2022/06/20 08:58:46;;;;;;;6.07;3.45;;;;;;;;;;5005451;28;20432;-75
2022/06/20 09:01:16;;;;;;;11.57;3.60;;;;;;;;;;5020639;28;20424;-75
2022/06/20 09:03:51;;;;;;;7.35;3.70;;;;;;;;;;5018726;28;20988;-75
2022/06/20 09:06:35;;;;;;;8.00;3.40;;;;;;;;;;5019928;28;20433;-75
2022/06/20 09:09:20;;;;;;;7.95;3.92;;;;;;;;;;5020095;28;20434;-75
2022/06/20 09:11:54;;;;;;;6.15;4.00;;;;;;;;;;5008755;28;20435;-75
2022/06/20 09:14:27;;;;;;;8.93;4.07;;;;;;;;;;5020733;28;20413;-75
2022/06/20 09:17:01;;;;;;;7.47;3.35;;;;;;;;;;5019229;28;21002;-75
2022/06/20 09:19:34;;;;;;;6.22;3.50;;;;;;;;;;5018235;28;20450;-75
2022/06/20 09:22:06;;;;;;;7.95;4.30;;;;;;;;;;5019145;28;20434;-75
2022/06/20 09:24:45;;;;;;;6.50;3.90;;;;;;;;;;5019852;28;20411;-75
2022/06/20 09:27:16;;;;;;;5.70;3.37;;;;;;;;;;5018726;28;20435;-75
2022/06/20 09:30:06;;;;;;;8.07;3.30;;;;;;;;;;5019931;28;20408;-75
2022/06/20 09:32:53;;;;;;;4.53;2.90;;;;;;;;;;5001013;28;20435;-75
2022/06/20 09:35:38;;;;;;;7.60;2.97;;;;;;;;;;5020233;28;20427;-75
2022/06/20 09:38:28;;;;;;;4.45;2.70;;;;;;;;;;5017857;28;21447;-75
2022/06/20 09:40:57;;;;;;;6.60;2.58;;;;;;;;;;4999285;28;20439;-75
2022/06/20 09:43:28;;;;;;;5.40;2.70;;;;;;;;;;5020535;28;20444;-75
2022/06/20 09:45:57;;;;;;;5.60;2.70;;;;;;;;;;5019433;28;20977;-75
2022/06/20 09:48:32;;;;;;;6.67;3.30;;;;;;;;;;5019774;28;20945;-74
2022/06/20 09:51:01;;;;;;;5.82;3.33;;;;;;;;;;5018314;28;21265;-75
2022/06/20 09:53:35;;;;;;;6.60;3.30;;;;;;;;;;5018236;28;20434;-75
2022/06/20 09:56:05;;;;;;;8.80;3.60;;;;;;;;;;5019084;28;20425;-75
2022/06/20 09:58:37;;;;;;;9.90;3.90;;;;;;;;;;5018539;28;20440;-74
2022/06/20 10:01:07;;;;;;;8.88;3.40;;;;;;;;;;5018797;28;20420;-74
2022/06/20 10:03:37;;;;;;;7.05;3.63;;;;;;;;;;5019603;28;20433;-75
2022/06/20 10:06:07;;;;;;;5.07;2.78;;;;;;;;;;5019087;28;20928;-75
2022/06/20 10:08:38;;;;;;;6.60;3.20;;;;;;;;;;5021301;28;20435;-75
2022/06/20 10:11:08;;;;;;;5.28;2.70;;;;;;;;;;5018599;28;20429;-75
2022/06/20 10:13:39;;;;;;;7.18;3.00;;;;;;;;;;5019838;28;20953;-74
2022/06/20 10:16:10;;;;;;;7.68;3.10;;;;;;;;;;5018269;28;20415;-74
2022/06/20 10:18:39;;;;;;;4.60;2.75;;;;;;;;;;5019184;28;20781;-75
2022/06/20 10:21:07;;;;;;;5.57;3.47;;;;;;;;;;5018672;28;20431;-74
2022/06/20 10:23:41;;;;;;;5.70;2.92;;;;;;;;;;5019129;28;20438;-74
2022/06/20 10:26:22;;;;;;;5.93;3.15;;;;;;;;;;5019267;28;20423;-74
2022/06/20 10:28:52;;;;;;;5.47;3.10;;;;;;;;;;5009810;28;20449;-74
2022/06/20 10:31:26;;;;;;;5.22;2.85;;;;;;;;;;5019411;28;20425;-74
2022/06/20 10:33:57;;;;;;;6.90;3.40;;;;;;;;;;5017777;28;20434;-74
2022/06/20 10:36:26;;;;;;;7.65;3.40;;;;;;;;;;5018030;28;20435;-75
2022/06/20 10:39:02;;;;;;;8.57;3.38;;;;;;;;;;5018538;28;20446;-74
2022/06/20 10:41:41;;;;;;;5.60;3.17;;;;;;;;;;4999894;28;20424;-75
2022/06/20 10:44:15;;;;;;;6.67;3.20;;;;;;;;;;4998916;28;20426;-74
2022/06/20 10:46:42;;;;;;;7.28;3.70;;;;;;;;;;4996273;28;20440;-74
2022/06/20 10:49:24;;;;;;;5.70;3.50;;;;;;;;;;4996623;28;20432;-74
2022/06/20 10:51:54;;;;;;;8.87;3.47;;;;;;;;;;4997643;28;20434;-74
2022/06/20 10:54:44;;;;;;;6.60;3.65;;;;;;;;;;4998693;28;20414;-73
2022/06/20 10:57:18;;;;;;;5.88;3.00;;;;;;;;;;4979198;28;20432;-73
2022/06/20 10:59:48;;;;;;;6.00;2.53;;;;;;;;;;4997279;28;20430;-74
2022/06/20 11:02:27;;;;;;;4.63;2.70;;;;;;;;;;4997619;28;20442;-74
2022/06/20 11:04:56;;;;;;;5.17;2.87;;;;;;;;;;4998898;28;20505;-74
2022/06/20 11:07:27;;;;;;;6.47;3.00;;;;;;;;;;4997348;28;20438;-74
2022/06/20 11:10:01;;;;;;;5.20;2.88;;;;;;;;;;4998048;28;20433;-74
2022/06/20 11:12:33;;;;;;;4.00;2.40;;;;;;;;;;4996576;28;20438;-74
2022/06/20 11:15:07;;;;;;;4.28;2.30;;;;;;;;;;4998330;28;20425;-74
2022/06/20 11:17:36;;;;;;;4.68;2.35;;;;;;;;;;4998760;28;20428;-74
2022/06/20 11:20:09;;;;;;;5.80;2.40;;;;;;;;;;4997220;28;20418;-74
2022/06/20 11:22:37;;;;;;;4.53;2.70;;;;;;;;;;4998543;28;20809;-74
2022/06/20 11:25:15;;;;;;;4.70;2.70;;;;;;;;;;4997370;28;20426;-74
2022/06/20 11:28:05;;;;;;;9.65;3.03;;;;;;;;;;4999057;28;20428;-74
2022/06/20 11:30:37;;;;;;;7.13;2.70;;;;;;;;;;4980527;28;20489;-73
2022/06/20 11:33:10;;;;;;;6.18;2.15;;;;;;;;;;4999474;28;20434;-74
2022/06/20 11:35:41;;;;;;;8.65;2.83;;;;;;;;;;4996666;28;20431;-74
2022/06/20 11:38:24;;;;;;;5.55;2.20;;;;;;;;;;5031756;22;20441;-73
2022/06/20 11:40:57;;;;;;;5.20;2.20;;;;;;;;;;5036960;28;20898;-74
2022/06/20 11:43:38;;;;;;;8.40;2.90;;;;;;;;;;5036307;28;20992;-73
2022/06/20 11:46:13;;;;;;;5.68;2.50;;;;;;;;;;5036696;28;20755;-73
2022/06/20 11:48:45;;;;;;;4.05;2.10;;;;;;;;;;5036954;28;20429;-74
2022/06/20 11:51:15;;;;;;;5.20;2.00;;;;;;;;;;5037235;28;20426;-73
2022/06/20 11:53:46;;;;;;;5.00;2.00;;;;;;;;;;5035944;28;20430;-73
2022/06/20 11:56:16;;;;;;;3.97;1.58;;;;;;;;;;5034863;28;20521;-73
2022/06/20 11:58:54;;;;;;;3.00;1.70;;;;;;;;;;5036578;28;20930;-73
2022/06/20 12:01:23;;;;;;;3.53;1.60;;;;;;;;;;5036820;28;20432;-73
2022/06/20 12:03:52;;;;;;;3.50;1.80;;;;;;;;;;5039822;28;20478;-73
2022/06/20 12:06:23;;;;;;;6.60;1.70;;;;;;;;;;5040493;28;20429;-73
2022/06/20 12:08:53;;;;;;;2.50;1.45;;;;;;;;;;5041737;28;20874;-73
2022/06/20 12:11:37;;;;;;;5.20;1.90;;;;;;;;;;5040775;28;20413;-73
2022/06/20 12:14:06;;;;;;;2.72;1.60;;;;;;;;;;5037085;28;20438;-73
2022/06/20 12:16:40;;;;;;;7.53;2.10;;;;;;;;;;5040542;28;20418;-72
2022/06/20 12:24:40;;;;;;;7.13;2.58;;;;;;;;;;5039448;28;20422;-73
2022/06/20 12:27:10;;;;;;;5.47;2.30;;;;;;;;;;5039286;28;20448;-73
2022/06/20 12:29:36;;;;;;;5.32;2.30;;;;;;;;;;5038136;28;21040;-73
2022/06/20 12:32:06;;;;;;;3.40;2.10;;;;;;;;;;5039643;28;21008;-73
2022/06/20 12:34:38;;;;;;;5.03;2.30;;;;;;;;;;5037802;28;20413;-73
2022/06/20 12:37:11;;;;;;;4.32;2.40;;;;;;;;;;5039159;28;20914;-74
2022/06/20 12:39:39;;;;;;;6.13;2.45;;;;;;;;;;5038903;28;20417;-73
2022/06/20 12:42:09;;;;;;;4.78;2.00;;;;;;;;;;5039780;28;20427;-73
2022/06/20 12:44:42;;;;;;;5.13;2.17;;;;;;;;;;5037471;28;20417;-73
2022/06/20 12:47:20;;;;;;;4.00;2.38;;;;;;;;;;5039973;28;20797;-73
2022/06/20 12:49:53;;;;;;;4.28;1.75;;;;;;;;;;5038335;28;20419;-73
2022/06/20 12:52:23;;;;;;;4.55;2.15;;;;;;;;;;5039876;28;20821;-73
2022/06/20 12:54:59;;;;;;;4.90;2.50;;;;;;;;;;5035531;28;20480;-74
2022/06/20 12:57:37;;;;;;;4.95;2.30;;;;;;;;;;5039276;28;20442;-75
2022/06/20 13:00:14;;;;;;;4.30;2.20;;;;;;;;;;5039486;28;20415;-73
2022/06/20 13:02:55;;;;;;;3.83;1.90;;;;;;;;;;5037225;28;20430;-73
2022/06/20 13:05:31;;;;;;;2.67;2.00;;;;;;;;;;5038521;28;20419;-73
2022/06/20 13:08:09;;;;;;;5.50;2.10;;;;;;;;;;5038211;28;20434;-74
2022/06/20 13:10:44;;;;;;;3.77;1.97;;;;;;;;;;5037516;28;20427;-73
2022/06/20 13:13:24;;;;;;;2.33;1.80;;;;;;;;;;5037849;28;20438;-73
2022/06/20 13:15:58;;;;;;;5.95;2.42;;;;;;;;;;5038439;28;20930;-74
2022/06/20 13:18:37;;;;;;;4.50;2.30;;;;;;;;;;5038307;28;20439;-73
2022/06/20 13:21:07;;;;;;;4.15;2.00;;;;;;;;;;5037482;28;20459;-73
2022/06/20 13:23:42;;;;;;;4.00;2.40;;;;;;;;;;5039125;28;20433;-73
2022/06/20 13:26:12;;;;;;;6.33;2.80;;;;;;;;;;5036206;28;20424;-73
2022/06/20 13:28:39;;;;;;;6.50;2.60;;;;;;;;;;5037326;28;20492;-73
2022/06/20 13:31:10;;;;;;;5.67;2.70;;;;;;;;;;5037473;28;20423;-73
2022/06/20 13:33:43;;;;;;;5.05;2.45;;;;;;;;;;5036555;28;20846;-73
2022/06/20 13:36:16;;;;;;;3.35;2.30;;;;;;;;;;5037387;28;20433;-73
2022/06/20 13:38:45;;;;;;;4.20;2.47;;;;;;;;;;5038370;28;20440;-73
2022/06/20 13:41:14;;;;;;;3.40;2.10;;;;;;;;;;5037427;28;20434;-73
2022/06/20 13:43:47;;;;;;;3.22;2.00;;;;;;;;;;5037469;28;20431;-73
2022/06/20 13:46:16;;;;;;;5.05;2.30;;;;;;;;;;5038284;28;20776;-73
2022/06/20 13:48:46;;;;;;;4.43;2.25;;;;;;;;;;5040103;28;20427;-73
2022/06/20 13:51:16;;;;;;;5.15;2.30;;;;;;;;;;5035172;28;20430;-74
2022/06/20 13:53:45;;;;;;;3.80;2.10;;;;;;;;;;5037462;28;20434;-73
2022/06/20 13:56:21;;;;;;;4.87;2.40;;;;;;;;;;5038567;28;20425;-73
2022/06/20 13:58:53;;;;;;;4.00;2.40;;;;;;;;;;5036556;28;20938;-73
2022/06/20 14:01:20;;;;;;;3.83;2.30;;;;;;;;;;5039066;28;20451;-73
2022/06/20 14:03:49;;;;;;;4.72;2.25;;;;;;;;;;5038088;28;20493;-73
2022/06/20 14:06:17;;;;;;;4.55;2.50;;;;;;;;;;5035298;28;20437;-73
2022/06/20 14:08:45;;;;;;;4.15;2.50;;;;;;;;;;5037958;28;20435;-73
2022/06/20 14:11:23;;;;;;;4.05;2.20;;;;;;;;;;5037290;28;20510;-73
2022/06/20 14:13:49;;;;;;;6.18;2.45;;;;;;;;;;5021821;28;20453;-73
2022/06/20 14:16:17;;;;;;;3.88;2.47;;;;;;;;;;5037847;28;21004;-73
2022/06/20 14:18:47;;;;;;;4.43;2.45;;;;;;;;;;5039182;28;20429;-73
2022/06/20 14:21:15;;;;;;;4.55;2.53;;;;;;;;;;5037781;28;20430;-73
2022/06/20 14:23:46;;;;;;;3.93;2.37;;;;;;;;;;5037891;28;20541;-73
2022/06/20 14:26:23;;;;;;;4.78;2.45;;;;;;;;;;5037113;28;20431;-73
2022/06/20 14:28:50;;;;;;;4.75;2.53;;;;;;;;;;5036177;28;20439;-73
2022/06/20 14:31:19;;;;;;;4.60;2.65;;;;;;;;;;5037082;28;20430;-73
2022/06/20 14:33:47;;;;;;;4.63;2.70;;;;;;;;;;5037894;28;20439;-73
2022/06/20 14:36:21;;;;;;;2.78;2.08;;;;;;;;;;5037594;28;20431;-73
2022/06/20 14:38:49;;;;;;;3.20;2.15;;;;;;;;;;5037589;28;20438;-73
2022/06/20 14:44:19;;;;;;;3.00;2.00;;;;;;;;;;5012439;28;20458;-73
2022/06/20 14:46:50;;;;;;;4.43;2.80;;;;;;;;;;5037830;28;20502;-73
2022/06/20 14:49:20;;;;;;;4.20;2.00;;;;;;;;;;5036608;28;20419;-73
2022/06/20 14:51:51;;;;;;;4.53;2.40;;;;;;;;;;5035541;28;20429;-73
2022/06/20 14:54:20;;;;;;;5.55;2.70;;;;;;;;;;5035646;28;20403;-73
2022/06/20 14:56:48;;;;;;;4.82;2.35;;;;;;;;;;5035935;28;20439;-73
2022/06/20 14:59:18;;;;;;;3.80;2.20;;;;;;;;;;5036585;28;20526;-73
2022/06/20 15:01:46;;;;;;;3.63;2.10;;;;;;;;;;5039061;28;20421;-73
2022/06/20 15:04:18;;;;;;;6.07;2.40;;;;;;;;;;5036265;28;20437;-73
2022/06/20 15:06:47;;;;;;;3.55;1.92;;;;;;;;;;5036492;28;20441;-73
2022/06/20 15:09:18;;;;;;;2.30;2.00;;;;;;;;;;5034579;28;20447;-73
2022/06/20 15:11:52;;;;;;;6.90;2.10;;;;;;;;;;5035036;28;20438;-73
2022/06/20 15:14:23;;;;;;;3.22;1.80;;;;;;;;;;5035451;28;20417;-73
2022/06/20 15:16:53;;;;;;;5.35;1.85;;;;;;;;;;5035527;28;20811;-73